sensor_id;sensor_type;location;lat;lon;timestamp;P1;durP1;ratioP1;P2;durP2;ratioP2
34060;SDS011;20336;-33.424;-70.638;2023-07-13T00:00:46;4.60;;;2.00;;
34060;SDS011;20336;-33.424;-70.638;2023-07-13T00:03:13;2.53;;;1.90;;
34060;SDS011;20336;-33.424;-70.638;2023-07-13T00:05:40;5.57;;;2.00;;
34060;SDS011;20336;-33.424;-70.638;2023-07-13T00:08:07;5.17;;;2.13;;
34060;SDS011;20336;-33.424;-70.638;2023-07-13T00:10:40;4.57;;;2.00;;
34060;SDS011;20336;-33.424;-70.638;2023-07-13T00:13:07;5.67;;;2.30;;
34060;SDS011;20336;-33.424;-70.638;2023-07-13T00:15:35;3.93;;;2.17;;
34060;SDS011;20336;-33.424;-70.638;2023-07-13T00:18:02;5.53;;;1.90;;
34060;SDS011;20336;-33.424;-70.638;2023-07-13T00:20:29;8.23;;;1.90;;
34060;SDS011;20336;-33.424;-70.638;2023-07-13T00:22:56;7.50;;;1.57;;
34060;SDS011;20336;-33.424;-70.638;2023-07-13T00:25:23;3.47;;;1.53;;
34060;SDS011;20336;-33.424;-70.638;2023-07-13T00:27:53;6.10;;;2.30;;
34060;SDS011;20336;-33.424;-70.638;2023-07-13T00:30:21;5.37;;;2.47;;
34060;SDS011;20336;-33.424;-70.638;2023-07-13T00:32:48;5.07;;;2.20;;
34060;SDS011;20336;-33.424;-70.638;2023-07-13T00:35:14;3.80;;;2.30;;
34060;SDS011;20336;-33.424;-70.638;2023-07-13T00:37:42;8.70;;;2.40;;
34060;SDS011;20336;-33.424;-70.638;2023-07-13T00:40:10;4.10;;;2.60;;
34060;SDS011;20336;-33.424;-70.638;2023-07-13T00:42:37;5.13;;;2.80;;
34060;SDS011;20336;-33.424;-70.638;2023-07-13T00:45:05;6.07;;;2.83;;
34060;SDS011;20336;-33.424;-70.638;2023-07-13T00:47:33;4.93;;;3.00;;
34060;SDS011;20336;-33.424;-70.638;2023-07-13T00:50:00;6.70;;;2.77;;
34060;SDS011;20336;-33.424;-70.638;2023-07-13T00:52:27;4.33;;;2.43;;
34060;SDS011;20336;-33.424;-70.638;2023-07-13T00:54:54;5.73;;;3.00;;
34060;SDS011;20336;-33.424;-70.638;2023-07-13T00:57:21;5.40;;;3.17;;
34060;SDS011;20336;-33.424;-70.638;2023-07-13T00:59:53;8.03;;;2.87;;
34060;SDS011;20336;-33.424;-70.638;2023-07-13T01:02:20;4.97;;;2.70;;
34060;SDS011;20336;-33.424;-70.638;2023-07-13T01:04:47;7.90;;;3.20;;
34060;SDS011;20336;-33.424;-70.638;2023-07-13T01:07:14;4.90;;;2.63;;
34060;SDS011;20336;-33.424;-70.638;2023-07-13T01:09:41;8.50;;;2.70;;
34060;SDS011;20336;-33.424;-70.638;2023-07-13T01:12:10;4.90;;;2.10;;
34060;SDS011;20336;-33.424;-70.638;2023-07-13T01:14:39;5.47;;;2.40;;
34060;SDS011;20336;-33.424;-70.638;2023-07-13T01:17:08;4.00;;;2.37;;
34060;SDS011;20336;-33.424;-70.638;2023-07-13T01:19:37;3.00;;;2.13;;
34060;SDS011;20336;-33.424;-70.638;2023-07-13T01:22:14;8.93;;;2.77;;
34060;SDS011;20336;-33.424;-70.638;2023-07-13T01:24:42;6.27;;;3.97;;
34060;SDS011;20336;-33.424;-70.638;2023-07-13T01:27:10;6.10;;;3.50;;
34060;SDS011;20336;-33.424;-70.638;2023-07-13T01:29:38;5.73;;;3.50;;
34060;SDS011;20336;-33.424;-70.638;2023-07-13T01:32:08;9.57;;;3.67;;
34060;SDS011;20336;-33.424;-70.638;2023-07-13T01:34:35;7.03;;;3.43;;
34060;SDS011;20336;-33.424;-70.638;2023-07-13T01:37:03;10.23;;;5.00;;
34060;SDS011;20336;-33.424;-70.638;2023-07-13T01:39:30;8.23;;;4.30;;
34060;SDS011;20336;-33.424;-70.638;2023-07-13T01:41:58;10.53;;;4.70;;
34060;SDS011;20336;-33.424;-70.638;2023-07-13T01:44:25;10.77;;;5.57;;
34060;SDS011;20336;-33.424;-70.638;2023-07-13T01:46:52;14.13;;;5.70;;
34060;SDS011;20336;-33.424;-70.638;2023-07-13T01:49:19;14.87;;;7.87;;
34060;SDS011;20336;-33.424;-70.638;2023-07-13T01:51:46;13.30;;;7.33;;
34060;SDS011;20336;-33.424;-70.638;2023-07-13T01:54:13;17.93;;;9.00;;
34060;SDS011;20336;-33.424;-70.638;2023-07-13T01:56:39;13.20;;;9.57;;
34060;SDS011;20336;-33.424;-70.638;2023-07-13T01:59:07;17.40;;;9.93;;
34060;SDS011;20336;-33.424;-70.638;2023-07-13T02:01:34;13.40;;;8.70;;
34060;SDS011;20336;-33.424;-70.638;2023-07-13T02:04:01;17.00;;;9.57;;
34060;SDS011;20336;-33.424;-70.638;2023-07-13T02:06:28;17.87;;;10.53;;
34060;SDS011;20336;-33.424;-70.638;2023-07-13T02:08:55;13.43;;;8.70;;
34060;SDS011;20336;-33.424;-70.638;2023-07-13T02:11:22;14.30;;;7.87;;
34060;SDS011;20336;-33.424;-70.638;2023-07-13T02:13:50;11.73;;;7.73;;
34060;SDS011;20336;-33.424;-70.638;2023-07-13T02:16:17;13.20;;;8.17;;
34060;SDS011;20336;-33.424;-70.638;2023-07-13T02:18:44;11.43;;;6.40;;
34060;SDS011;20336;-33.424;-70.638;2023-07-13T02:21:11;12.23;;;7.83;;
34060;SDS011;20336;-33.424;-70.638;2023-07-13T02:23:38;10.00;;;7.20;;
34060;SDS011;20336;-33.424;-70.638;2023-07-13T02:26:05;13.43;;;7.17;;
34060;SDS011;20336;-33.424;-70.638;2023-07-13T02:28:31;15.40;;;7.50;;
34060;SDS011;20336;-33.424;-70.638;2023-07-13T02:31:09;11.33;;;7.17;;
34060;SDS011;20336;-33.424;-70.638;2023-07-13T02:33:36;11.47;;;7.47;;
34060;SDS011;20336;-33.424;-70.638;2023-07-13T02:36:03;15.80;;;7.63;;
34060;SDS011;20336;-33.424;-70.638;2023-07-13T02:38:31;12.00;;;7.13;;
34060;SDS011;20336;-33.424;-70.638;2023-07-13T02:41:05;14.03;;;7.67;;
34060;SDS011;20336;-33.424;-70.638;2023-07-13T02:43:32;15.80;;;8.10;;
34060;SDS011;20336;-33.424;-70.638;2023-07-13T02:45:59;12.93;;;7.20;;
34060;SDS011;20336;-33.424;-70.638;2023-07-13T02:48:34;16.47;;;7.40;;
34060;SDS011;20336;-33.424;-70.638;2023-07-13T02:51:01;13.03;;;7.50;;
34060;SDS011;20336;-33.424;-70.638;2023-07-13T02:53:28;12.33;;;7.23;;
34060;SDS011;20336;-33.424;-70.638;2023-07-13T02:55:55;16.60;;;8.63;;
34060;SDS011;20336;-33.424;-70.638;2023-07-13T02:58:22;13.40;;;7.30;;
34060;SDS011;20336;-33.424;-70.638;2023-07-13T03:00:49;17.60;;;8.03;;
34060;SDS011;20336;-33.424;-70.638;2023-07-13T03:03:16;12.17;;;7.00;;
34060;SDS011;20336;-33.424;-70.638;2023-07-13T03:05:43;12.43;;;7.53;;
34060;SDS011;20336;-33.424;-70.638;2023-07-13T03:08:15;13.30;;;7.50;;
34060;SDS011;20336;-33.424;-70.638;2023-07-13T03:10:43;12.80;;;7.33;;
34060;SDS011;20336;-33.424;-70.638;2023-07-13T03:13:10;13.13;;;7.57;;
34060;SDS011;20336;-33.424;-70.638;2023-07-13T03:15:37;15.03;;;8.23;;
34060;SDS011;20336;-33.424;-70.638;2023-07-13T03:18:04;14.63;;;7.87;;
34060;SDS011;20336;-33.424;-70.638;2023-07-13T03:20:32;11.47;;;7.73;;
34060;SDS011;20336;-33.424;-70.638;2023-07-13T03:22:59;12.77;;;8.40;;
34060;SDS011;20336;-33.424;-70.638;2023-07-13T03:25:26;16.30;;;9.60;;
34060;SDS011;20336;-33.424;-70.638;2023-07-13T03:27:53;13.50;;;8.90;;
34060;SDS011;20336;-33.424;-70.638;2023-07-13T03:30:20;13.53;;;9.10;;
34060;SDS011;20336;-33.424;-70.638;2023-07-13T03:32:46;16.40;;;9.67;;
34060;SDS011;20336;-33.424;-70.638;2023-07-13T03:35:13;14.73;;;9.13;;
34060;SDS011;20336;-33.424;-70.638;2023-07-13T03:37:40;16.40;;;9.20;;
34060;SDS011;20336;-33.424;-70.638;2023-07-13T03:40:08;15.50;;;8.97;;
34060;SDS011;20336;-33.424;-70.638;2023-07-13T03:42:35;16.60;;;9.23;;
34060;SDS011;20336;-33.424;-70.638;2023-07-13T03:45:02;16.87;;;9.37;;
34060;SDS011;20336;-33.424;-70.638;2023-07-13T03:47:29;13.80;;;8.27;;
34060;SDS011;20336;-33.424;-70.638;2023-07-13T03:49:56;15.27;;;9.10;;
34060;SDS011;20336;-33.424;-70.638;2023-07-13T03:52:23;14.80;;;9.30;;
34060;SDS011;20336;-33.424;-70.638;2023-07-13T03:54:49;14.77;;;7.97;;
34060;SDS011;20336;-33.424;-70.638;2023-07-13T03:57:18;11.60;;;8.47;;
34060;SDS011;20336;-33.424;-70.638;2023-07-13T03:59:44;12.43;;;8.67;;
34060;SDS011;20336;-33.424;-70.638;2023-07-13T04:02:11;15.83;;;8.67;;
34060;SDS011;20336;-33.424;-70.638;2023-07-13T04:04:38;11.40;;;7.20;;
34060;SDS011;20336;-33.424;-70.638;2023-07-13T04:07:06;13.07;;;7.83;;
34060;SDS011;20336;-33.424;-70.638;2023-07-13T04:09:36;16.47;;;8.60;;
34060;SDS011;20336;-33.424;-70.638;2023-07-13T04:12:02;12.13;;;8.43;;
34060;SDS011;20336;-33.424;-70.638;2023-07-13T04:14:29;12.37;;;8.27;;
34060;SDS011;20336;-33.424;-70.638;2023-07-13T04:16:56;10.80;;;8.03;;
34060;SDS011;20336;-33.424;-70.638;2023-07-13T04:19:23;11.50;;;8.03;;
34060;SDS011;20336;-33.424;-70.638;2023-07-13T04:21:50;16.37;;;8.87;;
34060;SDS011;20336;-33.424;-70.638;2023-07-13T04:24:17;11.80;;;8.50;;
34060;SDS011;20336;-33.424;-70.638;2023-07-13T04:26:44;11.90;;;7.63;;
34060;SDS011;20336;-33.424;-70.638;2023-07-13T04:29:11;14.83;;;8.40;;
34060;SDS011;20336;-33.424;-70.638;2023-07-13T04:31:38;14.67;;;9.60;;
34060;SDS011;20336;-33.424;-70.638;2023-07-13T04:34:05;17.03;;;10.07;;
34060;SDS011;20336;-33.424;-70.638;2023-07-13T04:36:32;27.57;;;15.83;;
34060;SDS011;20336;-33.424;-70.638;2023-07-13T04:39:02;33.23;;;17.63;;
34060;SDS011;20336;-33.424;-70.638;2023-07-13T04:41:29;23.03;;;14.20;;
34060;SDS011;20336;-33.424;-70.638;2023-07-13T04:43:56;17.80;;;11.03;;
34060;SDS011;20336;-33.424;-70.638;2023-07-13T04:46:23;22.40;;;13.93;;
34060;SDS011;20336;-33.424;-70.638;2023-07-13T04:48:50;22.53;;;13.57;;
34060;SDS011;20336;-33.424;-70.638;2023-07-13T04:51:18;16.93;;;10.73;;
34060;SDS011;20336;-33.424;-70.638;2023-07-13T04:53:51;19.43;;;11.53;;
34060;SDS011;20336;-33.424;-70.638;2023-07-13T04:56:18;15.33;;;10.50;;
34060;SDS011;20336;-33.424;-70.638;2023-07-13T04:58:45;16.23;;;9.87;;
34060;SDS011;20336;-33.424;-70.638;2023-07-13T05:01:12;18.83;;;10.57;;
34060;SDS011;20336;-33.424;-70.638;2023-07-13T05:03:39;16.07;;;10.17;;
34060;SDS011;20336;-33.424;-70.638;2023-07-13T05:06:07;17.23;;;11.17;;
34060;SDS011;20336;-33.424;-70.638;2023-07-13T05:08:37;19.80;;;11.80;;
34060;SDS011;20336;-33.424;-70.638;2023-07-13T05:11:04;17.77;;;12.07;;
34060;SDS011;20336;-33.424;-70.638;2023-07-13T05:13:32;18.50;;;11.77;;
34060;SDS011;20336;-33.424;-70.638;2023-07-13T05:16:00;16.07;;;10.40;;
34060;SDS011;20336;-33.424;-70.638;2023-07-13T05:18:28;17.83;;;11.03;;
34060;SDS011;20336;-33.424;-70.638;2023-07-13T05:20:59;16.33;;;10.33;;
34060;SDS011;20336;-33.424;-70.638;2023-07-13T05:23:26;17.37;;;10.43;;
34060;SDS011;20336;-33.424;-70.638;2023-07-13T05:25:53;17.47;;;9.77;;
34060;SDS011;20336;-33.424;-70.638;2023-07-13T05:28:21;15.17;;;9.90;;
34060;SDS011;20336;-33.424;-70.638;2023-07-13T05:30:48;18.77;;;11.00;;
34060;SDS011;20336;-33.424;-70.638;2023-07-13T05:33:15;17.33;;;10.23;;
34060;SDS011;20336;-33.424;-70.638;2023-07-13T05:35:42;17.93;;;11.00;;
34060;SDS011;20336;-33.424;-70.638;2023-07-13T05:38:09;18.70;;;11.63;;
34060;SDS011;20336;-33.424;-70.638;2023-07-13T05:40:36;19.40;;;11.37;;
34060;SDS011;20336;-33.424;-70.638;2023-07-13T05:43:03;19.53;;;12.07;;
34060;SDS011;20336;-33.424;-70.638;2023-07-13T05:45:30;18.27;;;11.03;;
34060;SDS011;20336;-33.424;-70.638;2023-07-13T05:47:57;18.63;;;11.47;;
34060;SDS011;20336;-33.424;-70.638;2023-07-13T05:50:24;17.23;;;11.57;;
34060;SDS011;20336;-33.424;-70.638;2023-07-13T05:52:51;20.47;;;11.47;;
34060;SDS011;20336;-33.424;-70.638;2023-07-13T05:55:18;16.87;;;11.57;;
34060;SDS011;20336;-33.424;-70.638;2023-07-13T05:57:45;16.07;;;10.80;;
34060;SDS011;20336;-33.424;-70.638;2023-07-13T06:00:12;17.83;;;11.40;;
34060;SDS011;20336;-33.424;-70.638;2023-07-13T06:02:39;15.90;;;9.87;;
34060;SDS011;20336;-33.424;-70.638;2023-07-13T06:05:06;19.00;;;9.97;;
34060;SDS011;20336;-33.424;-70.638;2023-07-13T06:07:33;17.70;;;8.90;;
34060;SDS011;20336;-33.424;-70.638;2023-07-13T06:10:00;20.33;;;10.90;;
34060;SDS011;20336;-33.424;-70.638;2023-07-13T06:12:27;12.97;;;8.50;;
34060;SDS011;20336;-33.424;-70.638;2023-07-13T06:14:54;16.67;;;9.47;;
34060;SDS011;20336;-33.424;-70.638;2023-07-13T06:17:21;13.33;;;8.73;;
34060;SDS011;20336;-33.424;-70.638;2023-07-13T06:19:48;14.27;;;9.47;;
34060;SDS011;20336;-33.424;-70.638;2023-07-13T06:22:14;20.93;;;10.67;;
34060;SDS011;20336;-33.424;-70.638;2023-07-13T06:24:41;17.63;;;10.80;;
34060;SDS011;20336;-33.424;-70.638;2023-07-13T06:27:08;23.57;;;11.77;;
34060;SDS011;20336;-33.424;-70.638;2023-07-13T06:29:35;20.90;;;13.07;;
34060;SDS011;20336;-33.424;-70.638;2023-07-13T06:32:02;23.87;;;14.43;;
34060;SDS011;20336;-33.424;-70.638;2023-07-13T06:34:29;25.17;;;15.47;;
34060;SDS011;20336;-33.424;-70.638;2023-07-13T06:36:56;28.07;;;15.30;;
34060;SDS011;20336;-33.424;-70.638;2023-07-13T06:39:23;25.57;;;15.63;;
34060;SDS011;20336;-33.424;-70.638;2023-07-13T06:41:50;29.33;;;15.97;;
34060;SDS011;20336;-33.424;-70.638;2023-07-13T06:44:16;22.20;;;14.47;;
34060;SDS011;20336;-33.424;-70.638;2023-07-13T06:46:43;27.10;;;15.20;;
34060;SDS011;20336;-33.424;-70.638;2023-07-13T06:49:10;35.20;;;19.47;;
34060;SDS011;20336;-33.424;-70.638;2023-07-13T06:51:37;23.67;;;15.87;;
34060;SDS011;20336;-33.424;-70.638;2023-07-13T06:54:04;27.83;;;17.73;;
34060;SDS011;20336;-33.424;-70.638;2023-07-13T06:56:31;26.67;;;16.83;;
34060;SDS011;20336;-33.424;-70.638;2023-07-13T06:58:58;29.93;;;18.03;;
34060;SDS011;20336;-33.424;-70.638;2023-07-13T07:01:24;28.10;;;17.43;;
34060;SDS011;20336;-33.424;-70.638;2023-07-13T07:03:51;29.67;;;18.47;;
34060;SDS011;20336;-33.424;-70.638;2023-07-13T07:06:19;30.43;;;19.93;;
34060;SDS011;20336;-33.424;-70.638;2023-07-13T07:08:49;32.53;;;19.60;;
34060;SDS011;20336;-33.424;-70.638;2023-07-13T07:11:17;37.07;;;22.33;;
34060;SDS011;20336;-33.424;-70.638;2023-07-13T07:13:44;31.73;;;19.07;;
34060;SDS011;20336;-33.424;-70.638;2023-07-13T07:16:11;30.63;;;19.20;;
34060;SDS011;20336;-33.424;-70.638;2023-07-13T07:18:38;37.43;;;21.53;;
34060;SDS011;20336;-33.424;-70.638;2023-07-13T07:21:05;40.40;;;22.53;;
34060;SDS011;20336;-33.424;-70.638;2023-07-13T07:23:32;39.40;;;24.70;;
34060;SDS011;20336;-33.424;-70.638;2023-07-13T07:25:58;40.23;;;23.83;;
34060;SDS011;20336;-33.424;-70.638;2023-07-13T07:28:25;38.00;;;23.67;;
34060;SDS011;20336;-33.424;-70.638;2023-07-13T07:30:54;34.73;;;21.43;;
34060;SDS011;20336;-33.424;-70.638;2023-07-13T07:33:21;28.73;;;17.00;;
34060;SDS011;20336;-33.424;-70.638;2023-07-13T07:35:48;15.77;;;9.40;;
34060;SDS011;20336;-33.424;-70.638;2023-07-13T07:38:15;12.33;;;7.67;;
34060;SDS011;20336;-33.424;-70.638;2023-07-13T07:40:43;14.13;;;7.53;;
34060;SDS011;20336;-33.424;-70.638;2023-07-13T07:43:10;16.37;;;9.63;;
34060;SDS011;20336;-33.424;-70.638;2023-07-13T07:45:38;21.53;;;10.80;;
34060;SDS011;20336;-33.424;-70.638;2023-07-13T07:48:05;23.47;;;13.50;;
34060;SDS011;20336;-33.424;-70.638;2023-07-13T07:50:32;26.70;;;15.93;;
34060;SDS011;20336;-33.424;-70.638;2023-07-13T07:52:59;27.53;;;17.77;;
34060;SDS011;20336;-33.424;-70.638;2023-07-13T07:55:27;30.97;;;18.23;;
34060;SDS011;20336;-33.424;-70.638;2023-07-13T07:57:55;31.70;;;19.10;;
34060;SDS011;20336;-33.424;-70.638;2023-07-13T08:00:22;34.17;;;19.60;;
34060;SDS011;20336;-33.424;-70.638;2023-07-13T08:02:49;33.17;;;19.43;;
34060;SDS011;20336;-33.424;-70.638;2023-07-13T08:05:16;27.70;;;17.73;;
34060;SDS011;20336;-33.424;-70.638;2023-07-13T08:07:43;44.47;;;23.47;;
34060;SDS011;20336;-33.424;-70.638;2023-07-13T08:10:10;42.47;;;22.33;;
34060;SDS011;20336;-33.424;-70.638;2023-07-13T08:12:37;32.77;;;19.23;;
34060;SDS011;20336;-33.424;-70.638;2023-07-13T08:15:05;29.47;;;17.20;;
34060;SDS011;20336;-33.424;-70.638;2023-07-13T08:17:32;28.57;;;16.50;;
34060;SDS011;20336;-33.424;-70.638;2023-07-13T08:19:59;27.97;;;16.53;;
34060;SDS011;20336;-33.424;-70.638;2023-07-13T08:22:26;23.97;;;14.53;;
34060;SDS011;20336;-33.424;-70.638;2023-07-13T08:24:53;23.20;;;14.50;;
34060;SDS011;20336;-33.424;-70.638;2023-07-13T08:27:23;25.47;;;14.57;;
34060;SDS011;20336;-33.424;-70.638;2023-07-13T08:29:51;23.70;;;14.33;;
34060;SDS011;20336;-33.424;-70.638;2023-07-13T08:32:19;23.10;;;14.33;;
34060;SDS011;20336;-33.424;-70.638;2023-07-13T08:34:46;21.43;;;13.60;;
34060;SDS011;20336;-33.424;-70.638;2023-07-13T08:37:13;25.37;;;15.50;;
34060;SDS011;20336;-33.424;-70.638;2023-07-13T08:39:40;28.47;;;16.60;;
34060;SDS011;20336;-33.424;-70.638;2023-07-13T08:42:53;23.40;;;15.20;;
34060;SDS011;20336;-33.424;-70.638;2023-07-13T08:44:57;26.30;;;14.07;;
34060;SDS011;20336;-33.424;-70.638;2023-07-13T08:47:25;24.63;;;14.13;;
34060;SDS011;20336;-33.424;-70.638;2023-07-13T08:49:52;22.50;;;11.63;;
34060;SDS011;20336;-33.424;-70.638;2023-07-13T08:54:51;23.00;;;12.70;;
34060;SDS011;20336;-33.424;-70.638;2023-07-13T08:57:19;20.33;;;10.27;;
34060;SDS011;20336;-33.424;-70.638;2023-07-13T08:59:47;23.03;;;12.67;;
34060;SDS011;20336;-33.424;-70.638;2023-07-13T09:05:48;23.77;;;14.73;;
34060;SDS011;20336;-33.424;-70.638;2023-07-13T09:10:30;23.03;;;12.63;;
34060;SDS011;20336;-33.424;-70.638;2023-07-13T09:15:36;23.27;;;13.97;;
34060;SDS011;20336;-33.424;-70.638;2023-07-13T09:18:11;24.07;;;13.87;;
34060;SDS011;20336;-33.424;-70.638;2023-07-13T09:20:42;26.33;;;16.33;;
34060;SDS011;20336;-33.424;-70.638;2023-07-13T09:23:14;29.83;;;16.47;;
34060;SDS011;20336;-33.424;-70.638;2023-07-13T09:25:43;32.70;;;17.17;;
34060;SDS011;20336;-33.424;-70.638;2023-07-13T09:28:13;31.80;;;17.97;;
34060;SDS011;20336;-33.424;-70.638;2023-07-13T09:33:19;30.90;;;16.87;;
34060;SDS011;20336;-33.424;-70.638;2023-07-13T09:35:46;29.43;;;16.90;;
34060;SDS011;20336;-33.424;-70.638;2023-07-13T09:38:15;29.90;;;16.73;;
34060;SDS011;20336;-33.424;-70.638;2023-07-13T09:43:15;26.87;;;15.83;;
34060;SDS011;20336;-33.424;-70.638;2023-07-13T09:45:42;23.87;;;14.67;;
34060;SDS011;20336;-33.424;-70.638;2023-07-13T09:48:12;28.07;;;15.33;;
34060;SDS011;20336;-33.424;-70.638;2023-07-13T09:50:40;31.47;;;17.73;;
34060;SDS011;20336;-33.424;-70.638;2023-07-13T09:53:14;36.13;;;18.67;;
34060;SDS011;20336;-33.424;-70.638;2023-07-13T09:55:42;26.57;;;15.20;;
34060;SDS011;20336;-33.424;-70.638;2023-07-13T10:00:36;36.40;;;19.33;;
34060;SDS011;20336;-33.424;-70.638;2023-07-13T10:05:39;27.57;;;15.53;;
34060;SDS011;20336;-33.424;-70.638;2023-07-13T10:08:09;39.40;;;19.23;;
34060;SDS011;20336;-33.424;-70.638;2023-07-13T10:10:41;27.97;;;16.13;;
34060;SDS011;20336;-33.424;-70.638;2023-07-13T10:13:21;58.07;;;18.70;;
34060;SDS011;20336;-33.424;-70.638;2023-07-13T10:15:51;29.53;;;15.67;;
34060;SDS011;20336;-33.424;-70.638;2023-07-13T10:18:18;30.63;;;15.37;;
34060;SDS011;20336;-33.424;-70.638;2023-07-13T10:20:46;22.40;;;12.80;;
34060;SDS011;20336;-33.424;-70.638;2023-07-13T10:23:15;22.23;;;12.67;;
34060;SDS011;20336;-33.424;-70.638;2023-07-13T10:25:47;24.67;;;13.37;;
34060;SDS011;20336;-33.424;-70.638;2023-07-13T10:28:24;21.53;;;12.83;;
34060;SDS011;20336;-33.424;-70.638;2023-07-13T10:30:52;21.57;;;12.80;;
34060;SDS011;20336;-33.424;-70.638;2023-07-13T10:33:20;22.83;;;12.53;;
34060;SDS011;20336;-33.424;-70.638;2023-07-13T10:35:48;20.33;;;11.30;;
34060;SDS011;20336;-33.424;-70.638;2023-07-13T10:38:19;16.07;;;9.90;;
34060;SDS011;20336;-33.424;-70.638;2023-07-13T10:40:52;20.50;;;10.03;;
34060;SDS011;20336;-33.424;-70.638;2023-07-13T10:43:23;13.13;;;7.60;;
34060;SDS011;20336;-33.424;-70.638;2023-07-13T10:45:52;10.10;;;6.70;;
34060;SDS011;20336;-33.424;-70.638;2023-07-13T10:48:20;16.23;;;7.53;;
34060;SDS011;20336;-33.424;-70.638;2023-07-13T10:50:48;15.50;;;7.47;;
34060;SDS011;20336;-33.424;-70.638;2023-07-13T10:58:22;8.07;;;5.30;;
34060;SDS011;20336;-33.424;-70.638;2023-07-13T11:03:17;3.90;;;2.80;;
34060;SDS011;20336;-33.424;-70.638;2023-07-13T11:05:44;7.60;;;3.70;;
34060;SDS011;20336;-33.424;-70.638;2023-07-13T11:16:00;9.33;;;5.03;;
34060;SDS011;20336;-33.424;-70.638;2023-07-13T11:18:27;14.03;;;7.60;;
34060;SDS011;20336;-33.424;-70.638;2023-07-13T11:21:11;15.13;;;7.80;;
34060;SDS011;20336;-33.424;-70.638;2023-07-13T11:23:41;12.67;;;7.03;;
34060;SDS011;20336;-33.424;-70.638;2023-07-13T11:28:55;20.50;;;10.70;;
34060;SDS011;20336;-33.424;-70.638;2023-07-13T11:31:21;20.57;;;10.93;;
34060;SDS011;20336;-33.424;-70.638;2023-07-13T11:33:53;33.47;;;16.13;;
34060;SDS011;20336;-33.424;-70.638;2023-07-13T11:36:23;38.70;;;18.33;;
34060;SDS011;20336;-33.424;-70.638;2023-07-13T11:39:00;34.97;;;16.57;;
34060;SDS011;20336;-33.424;-70.638;2023-07-13T11:41:35;32.43;;;16.10;;
34060;SDS011;20336;-33.424;-70.638;2023-07-13T11:44:10;31.97;;;15.87;;
34060;SDS011;20336;-33.424;-70.638;2023-07-13T11:46:37;28.37;;;14.50;;
34060;SDS011;20336;-33.424;-70.638;2023-07-13T11:49:04;25.80;;;13.80;;
34060;SDS011;20336;-33.424;-70.638;2023-07-13T11:51:33;26.77;;;14.07;;
34060;SDS011;20336;-33.424;-70.638;2023-07-13T11:54:04;29.20;;;14.90;;
34060;SDS011;20336;-33.424;-70.638;2023-07-13T11:56:33;27.97;;;13.80;;
34060;SDS011;20336;-33.424;-70.638;2023-07-13T11:59:03;20.00;;;11.50;;
34060;SDS011;20336;-33.424;-70.638;2023-07-13T12:01:31;29.67;;;14.30;;
34060;SDS011;20336;-33.424;-70.638;2023-07-13T12:04:01;24.40;;;13.70;;
34060;SDS011;20336;-33.424;-70.638;2023-07-13T12:06:29;27.53;;;15.17;;
34060;SDS011;20336;-33.424;-70.638;2023-07-13T12:09:00;28.53;;;14.03;;
34060;SDS011;20336;-33.424;-70.638;2023-07-13T12:11:28;24.40;;;12.77;;
34060;SDS011;20336;-33.424;-70.638;2023-07-13T12:13:56;27.60;;;14.73;;
34060;SDS011;20336;-33.424;-70.638;2023-07-13T12:16:29;25.77;;;14.00;;
34060;SDS011;20336;-33.424;-70.638;2023-07-13T12:19:00;27.97;;;14.43;;
34060;SDS011;20336;-33.424;-70.638;2023-07-13T12:21:37;27.67;;;14.43;;
34060;SDS011;20336;-33.424;-70.638;2023-07-13T12:24:04;32.93;;;16.83;;
34060;SDS011;20336;-33.424;-70.638;2023-07-13T12:26:31;29.53;;;15.83;;
34060;SDS011;20336;-33.424;-70.638;2023-07-13T12:28:59;31.10;;;16.13;;
34060;SDS011;20336;-33.424;-70.638;2023-07-13T12:31:37;34.57;;;16.83;;
34060;SDS011;20336;-33.424;-70.638;2023-07-13T12:34:08;29.47;;;14.73;;
34060;SDS011;20336;-33.424;-70.638;2023-07-13T12:36:38;30.07;;;14.67;;
34060;SDS011;20336;-33.424;-70.638;2023-07-13T12:39:15;31.37;;;14.90;;
34060;SDS011;20336;-33.424;-70.638;2023-07-13T12:41:44;30.97;;;14.83;;
34060;SDS011;20336;-33.424;-70.638;2023-07-13T12:44:11;24.93;;;14.50;;
34060;SDS011;20336;-33.424;-70.638;2023-07-13T12:46:39;27.23;;;14.53;;
34060;SDS011;20336;-33.424;-70.638;2023-07-13T12:49:06;27.83;;;14.40;;
34060;SDS011;20336;-33.424;-70.638;2023-07-13T12:51:33;29.43;;;15.20;;
34060;SDS011;20336;-33.424;-70.638;2023-07-13T12:54:12;31.07;;;17.47;;
34060;SDS011;20336;-33.424;-70.638;2023-07-13T12:56:39;31.13;;;15.43;;
34060;SDS011;20336;-33.424;-70.638;2023-07-13T12:59:08;31.30;;;15.90;;
34060;SDS011;20336;-33.424;-70.638;2023-07-13T13:01:36;33.27;;;17.03;;
34060;SDS011;20336;-33.424;-70.638;2023-07-13T13:04:03;30.30;;;16.10;;
34060;SDS011;20336;-33.424;-70.638;2023-07-13T13:06:32;31.10;;;15.90;;
34060;SDS011;20336;-33.424;-70.638;2023-07-13T13:09:01;27.93;;;14.97;;
34060;SDS011;20336;-33.424;-70.638;2023-07-13T13:11:29;25.47;;;14.10;;
34060;SDS011;20336;-33.424;-70.638;2023-07-13T13:13:57;26.77;;;14.90;;
34060;SDS011;20336;-33.424;-70.638;2023-07-13T13:16:29;30.10;;;15.93;;
34060;SDS011;20336;-33.424;-70.638;2023-07-13T13:19:11;27.07;;;15.63;;
34060;SDS011;20336;-33.424;-70.638;2023-07-13T13:21:39;24.83;;;13.93;;
34060;SDS011;20336;-33.424;-70.638;2023-07-13T13:24:10;24.43;;;14.17;;
34060;SDS011;20336;-33.424;-70.638;2023-07-13T13:26:37;28.50;;;13.93;;
34060;SDS011;20336;-33.424;-70.638;2023-07-13T13:29:14;26.97;;;13.53;;
34060;SDS011;20336;-33.424;-70.638;2023-07-13T13:31:42;23.33;;;12.93;;
34060;SDS011;20336;-33.424;-70.638;2023-07-13T13:34:13;23.80;;;12.97;;
34060;SDS011;20336;-33.424;-70.638;2023-07-13T13:36:41;25.90;;;13.27;;
34060;SDS011;20336;-33.424;-70.638;2023-07-13T13:41:44;24.60;;;13.80;;
34060;SDS011;20336;-33.424;-70.638;2023-07-13T13:44:12;25.83;;;13.00;;
34060;SDS011;20336;-33.424;-70.638;2023-07-13T13:46:39;23.50;;;12.83;;
34060;SDS011;20336;-33.424;-70.638;2023-07-13T13:49:10;24.03;;;13.07;;
34060;SDS011;20336;-33.424;-70.638;2023-07-13T13:51:39;25.00;;;12.87;;
34060;SDS011;20336;-33.424;-70.638;2023-07-13T13:54:09;23.10;;;12.47;;
34060;SDS011;20336;-33.424;-70.638;2023-07-13T13:56:36;24.63;;;12.20;;
34060;SDS011;20336;-33.424;-70.638;2023-07-13T13:59:04;23.70;;;12.83;;
34060;SDS011;20336;-33.424;-70.638;2023-07-13T14:01:30;26.53;;;13.90;;
34060;SDS011;20336;-33.424;-70.638;2023-07-13T14:03:57;20.33;;;12.23;;
34060;SDS011;20336;-33.424;-70.638;2023-07-13T14:06:24;24.43;;;12.43;;
34060;SDS011;20336;-33.424;-70.638;2023-07-13T14:08:51;26.63;;;13.43;;
34060;SDS011;20336;-33.424;-70.638;2023-07-13T14:11:20;25.33;;;13.90;;
34060;SDS011;20336;-33.424;-70.638;2023-07-13T14:13:48;26.43;;;13.70;;
34060;SDS011;20336;-33.424;-70.638;2023-07-13T14:16:16;25.90;;;13.30;;
34060;SDS011;20336;-33.424;-70.638;2023-07-13T14:18:44;21.87;;;12.33;;
34060;SDS011;20336;-33.424;-70.638;2023-07-13T14:21:12;21.57;;;11.97;;
34060;SDS011;20336;-33.424;-70.638;2023-07-13T14:23:40;15.50;;;8.10;;
34060;SDS011;20336;-33.424;-70.638;2023-07-13T14:26:11;19.77;;;10.00;;
34060;SDS011;20336;-33.424;-70.638;2023-07-13T14:28:38;17.97;;;9.53;;
34060;SDS011;20336;-33.424;-70.638;2023-07-13T14:31:09;15.60;;;7.83;;
34060;SDS011;20336;-33.424;-70.638;2023-07-13T14:33:35;25.27;;;12.30;;
34060;SDS011;20336;-33.424;-70.638;2023-07-13T14:36:03;16.43;;;10.37;;
34060;SDS011;20336;-33.424;-70.638;2023-07-13T14:38:30;32.40;;;20.73;;